Mistral 10 — FW8959 — position and weather

sailwx.info

Track history (hours):
 
Tides and Currents Weather Stations Pressure Air Temp Water Temp Dewpoint Dewpoint Depression Visibility Wind Speed Wind Dir Waves Ship Positions

Mistral 10

Last reported at 2018-Aug-20 16:01 UTC. Time now 2018-Aug-20 16:06 UTC.
Position N 43°24' E 004°59'.

Length 30 m; draft 5 m.

Type: Tug. MMSI: 227006680.

Date/timePositionNaut miles runAvg speedWind from/ knotsBaromVisibWave heightAir tempDewpointWater temp
2018-Aug-20 16:01N 43°24' E 004°59'0 0.0
2018-Aug-20 15:59N 43°24' E 004°59'0 0.0
2018-Aug-20 15:30N 43°24' E 004°59'0 0.0
2018-Aug-20 15:03N 43°24' E 004°59'0 0.0
2018-Aug-20 15:00N 43°24' E 004°59'0 0.4
2018-Aug-20 14:30N 43°24' E 004°59'0 0.5
2018-Aug-20 14:00N 43°24' E 004°60'0 0.8
2018-Aug-20 13:29N 43°24' E 004°59'0 0.0
2018-Aug-20 13:02N 43°24' E 004°59'0 0.0
2018-Aug-20 12:58N 43°24' E 004°59'1 3.0
2018-Aug-20 12:30N 43°24' E 005°01'0 0.7
2018-Aug-20 12:03N 43°24' E 005°01'0 1.4
2018-Aug-20 12:00N 43°24' E 005°01'2 3.1
2018-Aug-20 11:29N 43°24' E 004°59'0 0.7
2018-Aug-20 11:03N 43°24' E 004°59'0 4.4
2018-Aug-20 11:00N 43°24' E 004°59'0 0.4
2018-Aug-20 10:28N 43°24' E 004°59'0 0.0
2018-Aug-20 10:02N 43°24' E 004°59'0 0.0
2018-Aug-20 09:58N 43°24' E 004°59'0 0.0
2018-Aug-20 09:30N 43°24' E 004°59'0 0.0
2018-Aug-20 09:03N 43°24' E 004°59'0 0.0
2018-Aug-20 08:59N 43°24' E 004°59'0 0.0
2018-Aug-20 08:28N 43°24' E 004°59'0 0.0
2018-Aug-20 08:02N 43°24' E 004°59'0 0.0
2018-Aug-20 07:58N 43°24' E 004°59'0 0.0
2018-Aug-20 07:28N 43°24' E 004°59'0 0.0
2018-Aug-20 07:03N 43°24' E 004°59'0 0.0
2018-Aug-20 07:00N 43°24' E 004°59'0 1.0
2018-Aug-20 06:30N 43°24' E 004°60'0 0.4
2018-Aug-20 06:03N 43°24' E 004°60'0 8.7
2018-Aug-20 06:00N 43°24' E 004°59'5 9.4
2018-Aug-20 05:30N 43°25' E 004°53'1 1.6
2018-Aug-20 05:00N 43°26' E 004°54'0 0.0
2018-Aug-20 04:46N 43°26' E 004°54'0 0.0
2018-Aug-20 04:30N 43°26' E 004°54'0 0.0
2018-Aug-20 03:59N 43°26' E 004°54'0 0.0
2018-Aug-20 03:30N 43°26' E 004°54'0 0.0
2018-Aug-20 03:00N 43°26' E 004°54'0 0.0
2018-Aug-20 02:17N 43°26' E 004°54'0 0.0
2018-Aug-20 01:58N 43°26' E 004°54'0 0.0
2018-Aug-20 01:29N 43°26' E 004°54'0 0.0
2018-Aug-20 00:55N 43°26' E 004°54'0 0.0
2018-Aug-20 00:29N 43°26' E 004°54'0 0.0
2018-Aug-19 22:37N 43°26' E 004°54'0 0.0
2018-Aug-19 22:25N 43°26' E 004°54'0 0.0
2018-Aug-19 21:53N 43°26' E 004°54'0 0.0
2018-Aug-19 21:28N 43°26' E 004°54'0 0.0
2018-Aug-19 21:00N 43°26' E 004°54'0 0.0
2018-Aug-19 20:28N 43°26' E 004°54'0 0.0
2018-Aug-19 17:40N 43°26' E 004°54'0 0.0
2018-Aug-19 17:28N 43°26' E 004°54'0 0.0
2018-Aug-19 16:54N 43°26' E 004°54'0 0.4
2018-Aug-19 16:26N 43°26' E 004°54'3 7.4
2018-Aug-19 16:00N 43°24' E 004°57'2 3.4
2018-Aug-19 15:30N 43°24' E 004°60'1 1.9
2018-Aug-19 15:00N 43°23' E 004°59'2 4.5
2018-Aug-19 14:30N 43°24' E 004°56'2 0.5
2018-Aug-19 10:21N 43°26' E 004°54'1 3.3
2018-Aug-19 09:57N 43°24' E 004°53'0 0.1
2018-Aug-19 09:22N 43°24' E 004°53'1 1.7
2018-Aug-19 08:59N 43°24' E 004°54'1 2.6
2018-Aug-19 08:30N 43°25' E 004°53'1 1.7
2018-Aug-19 07:57N 43°26' E 004°54'0 0.0
2018-Aug-19 07:16N 43°26' E 004°54'0 0.0
2018-Aug-19 06:55N 43°26' E 004°54'0 0.0
2018-Aug-19 06:17N 43°26' E 004°54'1 2.6
2018-Aug-19 05:56N 43°25' E 004°53'0 0.5
2018-Aug-19 05:26N 43°25' E 004°53'1 2.5
2018-Aug-19 05:00N 43°24' E 004°54'1 2.2
2018-Aug-19 04:29N 43°25' E 004°53'1 2.0
2018-Aug-19 04:00N 43°26' E 004°54'2 3.8
2018-Aug-19 03:22N 43°25' E 004°51'0 1.0
2018-Aug-19 02:58N 43°24' E 004°51'1 2.9
2018-Aug-19 02:29N 43°24' E 004°53'1 2.9
2018-Aug-19 02:00N 43°26' E 004°54'0 0.0
2018-Aug-19 01:30N 43°26' E 004°54'0 0.0
2018-Aug-19 00:52N 43°26' E 004°54'0 0.0
2018-Aug-19 00:25N 43°26' E 004°54'0 0.0
2018-Aug-18 23:57N 43°26' E 004°54'0 0.0
2018-Aug-18 23:29N 43°26' E 004°54'0 0.0
2018-Aug-18 23:00N 43°26' E 004°54'0 0.0
2018-Aug-18 22:30N 43°26' E 004°54'0 0.0
2018-Aug-18 21:59N 43°26' E 004°54'0 0.0
2018-Aug-18 21:23N 43°26' E 004°54'0 0.0
2018-Aug-18 21:00N 43°26' E 004°54'0 0.0
2018-Aug-18 20:30N 43°26' E 004°54'0 0.0
2018-Aug-18 20:00N 43°26' E 004°54'0 0.0
2018-Aug-18 19:29N 43°26' E 004°54'0 0.0
2018-Aug-18 19:00N 43°26' E 004°54'0 0.0
2018-Aug-18 18:30N 43°26' E 004°54'1 1.7
2018-Aug-18 18:00N 43°25' E 004°53'1 1.5
2018-Aug-18 17:27N 43°26' E 004°54'0 0.0
2018-Aug-18 16:56N 43°26' E 004°54'0 0.0
2018-Aug-18 16:30N 43°26' E 004°54'0 0.0
2018-Aug-18 16:00N 43°26' E 004°54'0 0.0
2018-Aug-18 15:30N 43°26' E 004°54'0 0.0
2018-Aug-18 15:00N 43°26' E 004°54'0 0.0
2018-Aug-18 14:23N 43°26' E 004°54'0 0.0
2018-Aug-18 13:59N 43°26' E 004°54'0 0.0
2018-Aug-18 12:24N 43°26' E 004°54'0 0.0
2018-Aug-18 12:00N 43°26' E 004°54'0 0.0
2018-Aug-18 11:30N 43°26' E 004°54'0 0.0
2018-Aug-18 11:00N 43°26' E 004°54'0 0.0
2018-Aug-18 10:25N 43°26' E 004°54'0 0.0
2018-Aug-18 09:59N 43°26' E 004°54'0 0.0
2018-Aug-18 09:27N 43°26' E 004°54'0 0.0
2018-Aug-18 09:00N 43°26' E 004°54'0 0.0
2018-Aug-18 08:29N 43°26' E 004°54'0 0.0
2018-Aug-18 07:46N 43°26' E 004°54'0 0.0
2018-Aug-18 07:26N 43°26' E 004°54'0 0.0
2018-Aug-18 07:00N 43°26' E 004°54'2 3.6
2018-Aug-18 06:27N 43°24' E 004°53'2 4.3
2018-Aug-18 06:00N 43°26' E 004°54'0 0.2
2018-Aug-18 05:30N 43°26' E 004°54'0 0.0
2018-Aug-18 05:00N 43°26' E 004°54'0 0.0
2018-Aug-18 04:29N 43°26' E 004°54'0 0.0
2018-Aug-18 04:00N 43°26' E 004°54'0 0.0
2018-Aug-18 03:30N 43°26' E 004°54'0 0.0
2018-Aug-18 02:59N 43°26' E 004°54'0 0.0
2018-Aug-18 02:30N 43°26' E 004°54'0 0.0
2018-Aug-18 01:58N 43°26' E 004°54'0 0.0
2018-Aug-18 01:30N 43°26' E 004°54'2 4.8
2018-Aug-18 00:59N 43°25' E 004°51'0 0.1
2018-Aug-18 00:30N 43°25' E 004°51'2 5.0
2018-Aug-18 00:00N 43°26' E 004°54'0 0.0
2018-Aug-17 23:30N 43°26' E 004°54'0 0.0
2018-Aug-17 23:00N 43°26' E 004°54'0 0.0
2018-Aug-17 22:30N 43°26' E 004°54'0 0.0
2018-Aug-17 22:00N 43°26' E 004°54'0 0.0
2018-Aug-17 21:29N 43°26' E 004°54'0 0.0
2018-Aug-17 21:00N 43°26' E 004°54'0 0.0
2018-Aug-17 20:30N 43°26' E 004°54'0 0.0
2018-Aug-17 20:00N 43°26' E 004°54'0 0.0
2018-Aug-17 19:30N 43°26' E 004°54'0 0.0
2018-Aug-17 19:00N 43°26' E 004°54'0 0.0
2018-Aug-17 18:30N 43°26' E 004°54'0 0.0
2018-Aug-17 18:00N 43°26' E 004°54'0 0.0
2018-Aug-17 17:30N 43°26' E 004°54'3 4.9
2018-Aug-17 16:53N 43°26' E 004°50'0 1.1
2018-Aug-17 16:27N 43°25' E 004°50'2 4.6
2018-Aug-17 15:58N 43°24' E 004°53'1 2.8
2018-Aug-17 15:29N 43°24' E 004°54'2 3.6
2018-Aug-17 15:00N 43°26' E 004°54'0 0.0
2018-Aug-17 11:30N 43°26' E 004°54'1 1.1
2018-Aug-17 10:47N 43°25' E 004°54'0 0.4
2018-Aug-17 10:29N 43°25' E 004°54'1 1.5
2018-Aug-17 09:53N 43°26' E 004°54'0 0.0
2018-Aug-17 09:30N 43°26' E 004°54'0 0.0
2018-Aug-17 09:00N 43°26' E 004°54'0 0.0
2018-Aug-17 08:30N 43°26' E 004°54'0 0.0
2018-Aug-17 08:00N 43°26' E 004°54'1 1.6
2018-Aug-17 07:30N 43°25' E 004°53'0 0.1
2018-Aug-17 07:00N 43°25' E 004°53'0 0.8
2018-Aug-17 06:29N 43°25' E 004°53'0 1.0
2018-Aug-17 06:00N 43°26' E 004°54'0 0.0
2018-Aug-17 05:30N 43°26' E 004°54'0 0.0
2018-Aug-17 05:00N 43°26' E 004°54'0 0.0
2018-Aug-17 04:30N 43°26' E 004°54'0 0.0
2018-Aug-17 04:00N 43°26' E 004°54'0 0.0
2018-Aug-17 03:30N 43°26' E 004°54'0 0.0
2018-Aug-17 03:00N 43°26' E 004°54'0 0.0
2018-Aug-17 02:30N 43°26' E 004°54'0 0.0
2018-Aug-17 02:00N 43°26' E 004°54'0 0.0
2018-Aug-17 01:30N 43°26' E 004°54'0 0.0
2018-Aug-17 01:00N 43°26' E 004°54'0 0.0
2018-Aug-17 00:30N 43°26' E 004°54'0 0.0
2018-Aug-17 00:00N 43°26' E 004°54'0 0.0
2018-Aug-16 23:30N 43°26' E 004°54'0 0.0
2018-Aug-16 23:00N 43°26' E 004°54'0 0.0
2018-Aug-16 22:30N 43°26' E 004°54'0 0.0
2018-Aug-16 22:00N 43°26' E 004°54'0 0.0
2018-Aug-16 21:30N 43°26' E 004°54'0 0.0
2018-Aug-16 21:00N 43°26' E 004°54'0 0.0
2018-Aug-16 20:30N 43°26' E 004°54'0 0.0
2018-Aug-16 20:00N 43°26' E 004°54'0 0.0
2018-Aug-16 19:30N 43°26' E 004°54'0 0.0
2018-Aug-16 19:00N 43°26' E 004°54'0 0.0
2018-Aug-16 18:30N 43°26' E 004°54'0 0.0
2018-Aug-16 18:00N 43°26' E 004°54'0 0.0
2018-Aug-16 17:30N 43°26' E 004°54'0 0.0
2018-Aug-16 17:00N 43°26' E 004°54'0 0.0
2018-Aug-16 16:30N 43°26' E 004°54'0 0.0
2018-Aug-16 16:00N 43°26' E 004°54'0 0.0
2018-Aug-16 15:30N 43°26' E 004°54'0 0.0
2018-Aug-16 15:00N 43°26' E 004°54'0 0.0
2018-Aug-16 14:30N 43°26' E 004°54'0 0.0
2018-Aug-16 14:00N 43°26' E 004°54'0 0.0
2018-Aug-16 13:30N 43°26' E 004°54'0 0.0
2018-Aug-16 13:00N 43°26' E 004°54'0 0.0
2018-Aug-16 12:30N 43°26' E 004°54'0 0.0
2018-Aug-16 12:00N 43°26' E 004°54'0 0.0
2018-Aug-16 11:30N 43°26' E 004°54'0 0.0
2018-Aug-16 11:00N 43°26' E 004°54'0 0.0
2018-Aug-16 10:30N 43°26' E 004°54'0 0.0
2018-Aug-16 10:00N 43°26' E 004°54'0 0.0
2018-Aug-16 09:30N 43°26' E 004°54'0 0.0
2018-Aug-16 09:00N 43°26' E 004°54'0 0.0
2018-Aug-16 08:30N 43°26' E 004°54'0 0.0
2018-Aug-16 08:00N 43°26' E 004°54'2 3.0
2018-Aug-16 07:30N 43°24' E 004°54'1 0.6
2018-Aug-16 06:38N 43°25' E 004°54'0 1.9
2018-Aug-16 06:30N 43°24' E 004°54'1 2.6
2018-Aug-16 06:00N 43°24' E 004°56'2 4.4
2018-Aug-16 05:30N 43°26' E 004°54'0 0.5
2018-Aug-16 05:00N 43°26' E 004°54'0 0.0
2018-Aug-16 04:30N 43°26' E 004°54'0 0.0
2018-Aug-16 04:00N 43°26' E 004°54'2 3.3
2018-Aug-16 03:27N 43°24' E 004°53'2 3.4
2018-Aug-16 02:58N 43°25' E 004°51'2 3.9
2018-Aug-16 02:30N 43°24' E 004°53'1 2.6
2018-Aug-16 02:00N 43°26' E 004°54'0 0.0
2018-Aug-16 01:30N 43°26' E 004°54'0 0.0
2018-Aug-16 01:00N 43°26' E 004°54'0 0.0
2018-Aug-16 00:30N 43°26' E 004°54'0 0.0
2018-Aug-16 00:00N 43°26' E 004°54'0 0.0
2018-Aug-15 23:30N 43°26' E 004°54'0 0.0
2018-Aug-15 23:00N 43°26' E 004°54'0 0.0
2018-Aug-15 22:30N 43°26' E 004°54'0 0.0
2018-Aug-15 22:00N 43°26' E 004°54'0 0.0
2018-Aug-15 21:30N 43°26' E 004°54'0 0.0
2018-Aug-15 21:00N 43°26' E 004°54'0 0.0
2018-Aug-15 20:30N 43°26' E 004°54'0 0.0
2018-Aug-15 20:00N 43°26' E 004°54'0 0.0
2018-Aug-15 19:30N 43°26' E 004°54'0 0.0
2018-Aug-15 19:00N 43°26' E 004°54'0 0.0
2018-Aug-15 18:30N 43°26' E 004°54'0 0.0
2018-Aug-15 18:00N 43°26' E 004°54'0 0.0
2018-Aug-15 17:30N 43°26' E 004°54'0 0.0
2018-Aug-15 17:00N 43°26' E 004°54'0 0.0
2018-Aug-15 16:30N 43°26' E 004°54'0 0.0
2018-Aug-15 16:00N 43°26' E 004°54'0 0.0
2018-Aug-15 15:30N 43°26' E 004°54'0 0.0
2018-Aug-15 15:00N 43°26' E 004°54'0 0.0
2018-Aug-15 14:30N 43°26' E 004°54'0 0.0
2018-Aug-15 14:00N 43°26' E 004°54'1 2.1
2018-Aug-15 13:28N 43°25' E 004°53'1 0.9
2018-Aug-15 12:46N 43°25' E 004°54'0 0.6
2018-Aug-15 12:30N 43°25' E 004°54'1 2.1
2018-Aug-15 12:00N 43°26' E 004°54'0 0.0
2018-Aug-15 11:30N 43°26' E 004°54'0 0.0
2018-Aug-15 11:00N 43°26' E 004°54'0 0.0
2018-Aug-15 10:30N 43°26' E 004°54'0 0.0
2018-Aug-15 10:00N 43°26' E 004°54'0 0.0
2018-Aug-15 09:30N 43°26' E 004°54'0 0.0
2018-Aug-15 09:00N 43°26' E 004°54'0 0.0
2018-Aug-15 08:30N 43°26' E 004°54'0 0.0
2018-Aug-15 08:00N 43°26' E 004°54'0 0.0
2018-Aug-15 07:30N 43°26' E 004°54'0 0.0
2018-Aug-15 07:00N 43°26' E 004°54'0 0.0
2018-Aug-15 06:30N 43°26' E 004°54'0 0.0
2018-Aug-15 06:00N 43°26' E 004°54'0 0.0
2018-Aug-15 05:30N 43°26' E 004°54'0 0.0
2018-Aug-15 05:00N 43°26' E 004°54'0 0.0
2018-Aug-15 04:30N 43°26' E 004°54'0 0.0
2018-Aug-15 04:00N 43°26' E 004°54'0 0.0
2018-Aug-15 03:30N 43°26' E 004°54'0 0.0
2018-Aug-15 03:00N 43°26' E 004°54'0 0.0
2018-Aug-15 02:30N 43°26' E 004°54'0 0.0
2018-Aug-15 02:00N 43°26' E 004°54'0 0.0
2018-Aug-15 01:30N 43°26' E 004°54'0 0.0
2018-Aug-15 01:00N 43°26' E 004°54'0 0.0
2018-Aug-15 00:30N 43°26' E 004°54'0 0.0
2018-Aug-15 00:00N 43°26' E 004°54'0 0.0
2018-Aug-14 23:30N 43°26' E 004°54'0 0.0
2018-Aug-14 23:00N 43°26' E 004°54'0 0.0
2018-Aug-14 22:30N 43°26' E 004°54'0 0.0
2018-Aug-14 22:00N 43°26' E 004°54'0 0.0
2018-Aug-14 21:30N 43°26' E 004°54'0 0.0
2018-Aug-14 21:00N 43°26' E 004°54'0 0.0
2018-Aug-14 20:30N 43°26' E 004°54'0 0.0
2018-Aug-14 20:00N 43°26' E 004°54'0 0.3
2018-Aug-14 19:29N 43°26' E 004°54'4 7.8
2018-Aug-14 18:59N 43°23' E 004°58'1 2.3
2018-Aug-14 18:30N 43°24' E 004°60'0 0.5
2018-Aug-14 17:59N 43°24' E 004°59'1 1.9
2018-Aug-14 17:30N 43°23' E 004°59'2 3.5
2018-Aug-14 17:00N 43°24' E 004°56'3 5.2
2018-Aug-14 16:30N 43°26' E 004°54'0 0.0
2018-Aug-14 16:00N 43°26' E 004°54'0 0.0
2018-Aug-14 15:30N 43°26' E 004°54'0 0.0
2018-Aug-14 15:00N 43°26' E 004°54'0 0.0
2018-Aug-14 14:30N 43°26' E 004°54'0 0.0
2018-Aug-14 14:00N 43°26' E 004°54'0 0.0
2018-Aug-14 13:30N 43°26' E 004°54'0 0.0
2018-Aug-14 13:00N 43°26' E 004°54'0 0.0
2018-Aug-14 12:30N 43°26' E 004°54'0 0.0
2018-Aug-14 12:00N 43°26' E 004°54'2 2.4
2018-Aug-14 10:59N 43°25' E 004°51'2 5.1
2018-Aug-14 10:30N 43°26' E 004°54'0 0.0
2018-Aug-14 10:00N 43°26' E 004°54'0 0.0
2018-Aug-14 09:30N 43°26' E 004°54'0 0.0
2018-Aug-14 09:00N 43°26' E 004°54'0 0.0
2018-Aug-14 08:30N 43°26' E 004°54'0 0.5
2018-Aug-14 08:00N 43°26' E 004°54'1 1.9
2018-Aug-14 07:20N 43°24' E 004°53'1 2.9
2018-Aug-14 07:00N 43°24' E 004°55'1 2.5
2018-Aug-14 06:30N 43°24' E 004°56'0 0.4
2018-Aug-14 06:00N 43°23' E 004°56'3 5.4
2018-Aug-14 05:30N 43°25' E 004°53'0 0.1
2018-Aug-14 05:00N 43°25' E 004°53'1 1.8
2018-Aug-14 04:30N 43°24' E 004°54'2 3.2
2018-Aug-14 04:00N 43°26' E 004°54'2 2.8
2018-Aug-14 03:18N 43°24' E 004°52'1 1.9
2018-Aug-14 02:37N 43°25' E 004°51'0 1.4
2018-Aug-14 02:29N 43°25' E 004°51'2 3.5
2018-Aug-14 02:00N 43°24' E 004°53'1 2.7
2018-Aug-14 01:30N 43°26' E 004°54'0 0.0
2018-Aug-14 01:00N 43°26' E 004°54'0 0.0
2018-Aug-14 00:30N 43°26' E 004°54'0 0.0
2018-Aug-14 00:00N 43°26' E 004°54'0 0.0
2018-Aug-13 23:30N 43°26' E 004°54'0 0.0
2018-Aug-13 23:00N 43°26' E 004°54'0 0.0
2018-Aug-13 22:30N 43°26' E 004°54'0 0.0
2018-Aug-13 22:00N 43°26' E 004°54'0 0.0
2018-Aug-13 21:30N 43°26' E 004°54'0 0.0
2018-Aug-13 20:59N 43°26' E 004°54'0 0.0
2018-Aug-13 20:30N 43°26' E 004°54'0 0.0
2018-Aug-13 20:00N 43°26' E 004°54'0 0.0
2018-Aug-13 19:30N 43°26' E 004°54'0 0.8
2018-Aug-13 18:59N 43°25' E 004°53'1 2.0
2018-Aug-13 18:29N 43°24' E 004°53'0 0.0
2018-Aug-13 18:00N 43°24' E 004°53'1 2.5
2018-Aug-13 17:30N 43°26' E 004°54'0 0.0
2018-Aug-13 17:00N 43°26' E 004°54'0 0.0
2018-Aug-13 16:30N 43°26' E 004°54'0 0.0
2018-Aug-13 16:00N 43°26' E 004°54'0 0.0
2018-Aug-13 15:30N 43°26' E 004°54'0 0.0
2018-Aug-13 15:00N 43°26' E 004°54'0 0.0
2018-Aug-13 14:30N 43°26' E 004°54'0 0.0
2018-Aug-13 14:00N 43°26' E 004°54'0 0.0
2018-Aug-13 13:30N 43°26' E 004°54'0 0.0
2018-Aug-13 13:00N 43°26' E 004°54'0 0.0
2018-Aug-13 12:30N 43°26' E 004°54'0 0.0
2018-Aug-13 12:00N 43°26' E 004°54'0 0.0
2018-Aug-13 11:30N 43°26' E 004°54'0 0.0
2018-Aug-13 11:00N 43°26' E 004°54'2 3.5
2018-Aug-13 10:26N 43°24' E 004°52'1 1.9
2018-Aug-13 09:59N 43°25' E 004°51'0 0.6
2018-Aug-13 09:29N 43°24' E 004°51'2 4.5
2018-Aug-13 09:00N 43°26' E 004°54'0 0.0
2018-Aug-13 08:30N 43°26' E 004°54'0 0.0
2018-Aug-13 08:00N 43°26' E 004°54'1 2.8
2018-Aug-13 07:29N 43°24' E 004°54'5 9.6
2018-Aug-13 07:00N 43°24' E 004°60'0 0.9
2018-Aug-13 06:30N 43°24' E 004°59'2 4.6
2018-Aug-13 06:00N 43°24' E 004°56'2 4.8
2018-Aug-13 05:30N 43°26' E 004°54'0 0.0
2018-Aug-13 05:00N 43°26' E 004°54'0 0.0
2018-Aug-13 04:30N 43°26' E 004°54'0 0.0
2018-Aug-13 04:00N 43°26' E 004°54'0 0.0
2018-Aug-13 03:30N 43°26' E 004°54'0 0.0
2018-Aug-13 02:59N 43°26' E 004°54'0 0.0
2018-Aug-13 02:30N 43°26' E 004°54'0 0.0
2018-Aug-13 02:00N 43°26' E 004°54'0 0.0
2018-Aug-13 01:30N 43°26' E 004°54'0 0.0
2018-Aug-13 01:00N 43°26' E 004°54'0 0.0
2018-Aug-13 00:30N 43°26' E 004°54'2 3.0
2018-Aug-12 23:44N 43°25' E 004°51'1 2.5
2018-Aug-12 23:28N 43°24' E 004°52'2 4.4
2018-Aug-12 23:00N 43°26' E 004°54'0 0.0
2018-Aug-12 22:30N 43°26' E 004°54'0 0.0
2018-Aug-12 22:00N 43°26' E 004°54'0 0.0
2018-Aug-12 21:30N 43°26' E 004°54'0 0.0
2018-Aug-12 21:00N 43°26' E 004°54'0 0.0
2018-Aug-12 20:30N 43°26' E 004°54'0 0.0
2018-Aug-12 20:00N 43°26' E 004°54'0 0.0
2018-Aug-12 19:30N 43°26' E 004°54'0 0.0
2018-Aug-12 19:00N 43°26' E 004°54'0 0.0
2018-Aug-12 18:30N 43°26' E 004°54'0 0.0
2018-Aug-12 18:00N 43°26' E 004°54'0 0.0
2018-Aug-12 17:30N 43°26' E 004°54'0 0.0
2018-Aug-12 17:00N 43°26' E 004°54'0 0.0
2018-Aug-12 16:30N 43°26' E 004°54'0 0.0
2018-Aug-12 16:00N 43°26' E 004°54'0 0.0
2018-Aug-12 15:30N 43°26' E 004°54'0 0.0
2018-Aug-12 15:00N 43°26' E 004°54'0 0.0
2018-Aug-12 14:30N 43°26' E 004°54'0 0.0
2018-Aug-12 14:00N 43°26' E 004°54'0 0.0
2018-Aug-12 13:30N 43°26' E 004°54'0 0.0
2018-Aug-12 13:00N 43°26' E 004°54'0 0.0
2018-Aug-12 12:30N 43°26' E 004°54'0 0.0
2018-Aug-12 12:00N 43°26' E 004°54'0 0.0
2018-Aug-12 11:30N 43°26' E 004°54'0 0.0
2018-Aug-12 11:00N 43°26' E 004°54'0 0.0
2018-Aug-12 10:30N 43°26' E 004°54'0 0.0
2018-Aug-12 10:00N 43°26' E 004°54'0 0.0
2018-Aug-12 09:30N 43°26' E 004°54'0 0.0
2018-Aug-12 09:00N 43°26' E 004°54'0 0.0
2018-Aug-12 08:30N 43°26' E 004°54'0 0.0
2018-Aug-12 08:00N 43°26' E 004°54'0 0.0
2018-Aug-12 07:30N 43°26' E 004°54'0 0.7
2018-Aug-12 06:59N 43°25' E 004°53'4 7.7
2018-Aug-12 06:30N 43°23' E 004°58'1 1.8
2018-Aug-12 05:57N 43°24' E 004°59'0 0.0
2018-Aug-12 05:29N 43°24' E 004°59'0 0.0
2018-Aug-12 04:58N 43°24' E 004°59'0 0.0
2018-Aug-12 04:30N 43°24' E 004°59'0 0.0
2018-Aug-12 04:00N 43°24' E 004°59'0 0.0
2018-Aug-12 03:30N 43°24' E 004°59'0 0.0
2018-Aug-12 03:00N 43°24' E 004°59'0 0.0
2018-Aug-12 02:30N 43°24' E 004°59'1 1.2
2018-Aug-12 02:00N 43°24' E 004°60'1 1.2
2018-Aug-12 01:30N 43°24' E 004°59'0 0.0
2018-Aug-12 00:59N 43°24' E 004°59'0 0.0
2018-Aug-12 00:30N 43°24' E 004°59'0 0.0
2018-Aug-12 00:00N 43°24' E 004°59'0 0.0
2018-Aug-11 23:30N 43°24' E 004°59'0 0.0
2018-Aug-11 23:00N 43°24' E 004°59'0 0.0
2018-Aug-11 22:30N 43°24' E 004°59'0 0.0
2018-Aug-11 22:00N 43°24' E 004°59'0 0.8
2018-Aug-11 21:30N 43°24' E 004°60'0 0.4
2018-Aug-11 21:00N 43°24' E 004°59'0 0.6
2018-Aug-11 20:30N 43°24' E 004°59'0 0.0
2018-Aug-11 20:00N 43°24' E 004°59'0 0.0
2018-Aug-11 19:30N 43°24' E 004°59'0 0.0
2018-Aug-11 19:00N 43°24' E 004°59'0 0.0
2018-Aug-11 18:30N 43°24' E 004°59'0 0.0
2018-Aug-11 18:00N 43°24' E 004°59'2 4.8
2018-Aug-11 17:30N 43°24' E 004°56'4 5.2
2018-Aug-11 16:49N 43°25' E 004°51'0 0.5
2018-Aug-11 16:24N 43°25' E 004°51'411.1
2018-Aug-11 16:00N 43°24' E 004°57'1 2.9
2018-Aug-11 15:30N 43°24' E 004°59'0 0.0
2018-Aug-11 15:00N 43°24' E 004°59'0 0.0
2018-Aug-11 14:30N 43°24' E 004°59'0 0.0
2018-Aug-11 13:59N 43°24' E 004°59'0 0.0
2018-Aug-11 13:30N 43°24' E 004°59'0 0.0
2018-Aug-11 13:00N 43°24' E 004°59'4 7.5
2018-Aug-11 12:30N 43°24' E 004°54'2 2.5
2018-Aug-11 11:48N 43°25' E 004°53'1 2.3
2018-Aug-11 11:30N 43°25' E 004°53'2 4.1
2018-Aug-11 10:58N 43°24' E 004°55'4 3.3
2018-Aug-11 09:49N 43°25' E 004°51'2 5.9
2018-Aug-11 09:30N 43°24' E 004°53'0 0.4
2018-Aug-11 08:59N 43°24' E 004°53'2 3.2
2018-Aug-11 08:29N 43°26' E 004°52'0 0.3
2018-Aug-11 07:56N 43°25' E 004°52'410.3
2018-Aug-11 07:30N 43°23' E 004°58'1 1.9
2018-Aug-11 07:00N 43°24' E 004°59'0 0.0
2018-Aug-11 06:30N 43°24' E 004°59'0 0.0
2018-Aug-11 05:54N 43°24' E 004°59'0 0.0
2018-Aug-11 05:30N 43°24' E 004°59'0 0.0
2018-Aug-11 05:00N 43°24' E 004°59'0 0.0
2018-Aug-11 04:29N 43°24' E 004°59'0 0.6
2018-Aug-11 04:00N 43°24' E 004°59'0 0.2
2018-Aug-11 03:30N 43°24' E 004°60'0 0.8
2018-Aug-11 03:00N 43°24' E 004°59'0 0.0
2018-Aug-11 02:30N 43°24' E 004°59'0 0.0
2018-Aug-11 02:00N 43°24' E 004°59'0 0.0
2018-Aug-11 01:30N 43°24' E 004°59'0 0.0
2018-Aug-11 01:00N 43°24' E 004°59'0 0.0
2018-Aug-11 00:30N 43°24' E 004°59'0 0.0
2018-Aug-11 00:00N 43°24' E 004°59'0 0.0
2018-Aug-10 23:30N 43°24' E 004°59'0 0.0
2018-Aug-10 23:00N 43°24' E 004°59'0 0.0
2018-Aug-10 22:30N 43°24' E 004°59'0 0.0
2018-Aug-10 22:00N 43°24' E 004°59'0 0.0
2018-Aug-10 21:30N 43°24' E 004°59'0 0.0
2018-Aug-10 21:00N 43°24' E 004°59'0 0.0
2018-Aug-10 20:30N 43°24' E 004°59'0 0.0
2018-Aug-10 19:59N 43°24' E 004°59'0 0.0
2018-Aug-10 19:30N 43°24' E 004°59'0 0.0
2018-Aug-10 19:00N 43°24' E 004°59'0 0.0
2018-Aug-10 18:29N 43°24' E 004°59'0 0.0
2018-Aug-10 17:59N 43°24' E 004°59'3 5.3
2018-Aug-10 17:30N 43°24' E 004°56'4 2.5
2018-Aug-10 16:06N 43°25' E 004°51'  
Track history (hours):
 
Tides and Currents Weather Stations Pressure Air Temp Water Temp Dewpoint Dewpoint Depression Visibility Wind Speed Wind Dir Waves Ship Positions

Mistral 10

Last reported at 2018-Aug-20 16:01 UTC. Time now 2018-Aug-20 16:06 UTC.
Position N 43°24' E 004°59'.

Length 30 m; draft 5 m.

Type: Tug. MMSI: 227006680.

Date/timePositionNaut miles runAvg speedWind from/ knotsBaromVisibWave heightAir tempDewpointWater temp
2018-Aug-20 16:01N 43°24' E 004°59'0 0.0
2018-Aug-20 15:59N 43°24' E 004°59'0 0.0
2018-Aug-20 15:30N 43°24' E 004°59'0 0.0
2018-Aug-20 15:03N 43°24' E 004°59'0 0.0
2018-Aug-20 15:00N 43°24' E 004°59'0 0.4
2018-Aug-20 14:30N 43°24' E 004°59'0 0.5
2018-Aug-20 14:00N 43°24' E 004°60'0 0.8
2018-Aug-20 13:29N 43°24' E 004°59'0 0.0
2018-Aug-20 13:02N 43°24' E 004°59'0 0.0
2018-Aug-20 12:58N 43°24' E 004°59'1 3.0
2018-Aug-20 12:30N 43°24' E 005°01'0 0.7
2018-Aug-20 12:03N 43°24' E 005°01'0 1.4
2018-Aug-20 12:00N 43°24' E 005°01'2 3.1
2018-Aug-20 11:29N 43°24' E 004°59'0 0.7
2018-Aug-20 11:03N 43°24' E 004°59'0 4.4
2018-Aug-20 11:00N 43°24' E 004°59'0 0.4
2018-Aug-20 10:28N 43°24' E 004°59'0 0.0
2018-Aug-20 10:02N 43°24' E 004°59'0 0.0
2018-Aug-20 09:58N 43°24' E 004°59'0 0.0
2018-Aug-20 09:30N 43°24' E 004°59'0 0.0
2018-Aug-20 09:03N 43°24' E 004°59'0 0.0
2018-Aug-20 08:59N 43°24' E 004°59'0 0.0
2018-Aug-20 08:28N 43°24' E 004°59'0 0.0
2018-Aug-20 08:02N 43°24' E 004°59'0 0.0
2018-Aug-20 07:58N 43°24' E 004°59'0 0.0
2018-Aug-20 07:28N 43°24' E 004°59'0 0.0
2018-Aug-20 07:03N 43°24' E 004°59'0 0.0
2018-Aug-20 07:00N 43°24' E 004°59'0 1.0
2018-Aug-20 06:30N 43°24' E 004°60'0 0.4
2018-Aug-20 06:03N 43°24' E 004°60'0 8.7
2018-Aug-20 06:00N 43°24' E 004°59'5 9.4
2018-Aug-20 05:30N 43°25' E 004°53'1 1.6
2018-Aug-20 05:00N 43°26' E 004°54'0 0.0
2018-Aug-20 04:46N 43°26' E 004°54'0 0.0
2018-Aug-20 04:30N 43°26' E 004°54'0 0.0
2018-Aug-20 03:59N 43°26' E 004°54'0 0.0
2018-Aug-20 03:30N 43°26' E 004°54'0 0.0
2018-Aug-20 03:00N 43°26' E 004°54'0 0.0
2018-Aug-20 02:17N 43°26' E 004°54'0 0.0
2018-Aug-20 01:58N 43°26' E 004°54'0 0.0
2018-Aug-20 01:29N 43°26' E 004°54'0 0.0
2018-Aug-20 00:55N 43°26' E 004°54'0 0.0
2018-Aug-20 00:29N 43°26' E 004°54'0 0.0
2018-Aug-19 22:37N 43°26' E 004°54'0 0.0
2018-Aug-19 22:25N 43°26' E 004°54'0 0.0
2018-Aug-19 21:53N 43°26' E 004°54'0 0.0
2018-Aug-19 21:28N 43°26' E 004°54'0 0.0
2018-Aug-19 21:00N 43°26' E 004°54'0 0.0
2018-Aug-19 20:28N 43°26' E 004°54'0 0.0
2018-Aug-19 17:40N 43°26' E 004°54'0 0.0
2018-Aug-19 17:28N 43°26' E 004°54'0 0.0
2018-Aug-19 16:54N 43°26' E 004°54'0 0.4
2018-Aug-19 16:26N 43°26' E 004°54'3 7.4
2018-Aug-19 16:00N 43°24' E 004°57'2 3.4
2018-Aug-19 15:30N 43°24' E 004°60'1 1.9
2018-Aug-19 15:00N 43°23' E 004°59'2 4.5
2018-Aug-19 14:30N 43°24' E 004°56'2 0.5
2018-Aug-19 10:21N 43°26' E 004°54'1 3.3
2018-Aug-19 09:57N 43°24' E 004°53'0 0.1
2018-Aug-19 09:22N 43°24' E 004°53'1 1.7
2018-Aug-19 08:59N 43°24' E 004°54'1 2.6
2018-Aug-19 08:30N 43°25' E 004°53'1 1.7
2018-Aug-19 07:57N 43°26' E 004°54'0 0.0
2018-Aug-19 07:16N 43°26' E 004°54'0 0.0
2018-Aug-19 06:55N 43°26' E 004°54'0 0.0
2018-Aug-19 06:17N 43°26' E 004°54'1 2.6
2018-Aug-19 05:56N 43°25' E 004°53'0 0.5
2018-Aug-19 05:26N 43°25' E 004°53'1 2.5
2018-Aug-19 05:00N 43°24' E 004°54'1 2.2
2018-Aug-19 04:29N 43°25' E 004°53'1 2.0
2018-Aug-19 04:00N 43°26' E 004°54'2 3.8
2018-Aug-19 03:22N 43°25' E 004°51'0 1.0
2018-Aug-19 02:58N 43°24' E 004°51'1 2.9
2018-Aug-19 02:29N 43°24' E 004°53'1 2.9
2018-Aug-19 02:00N 43°26' E 004°54'0 0.0
2018-Aug-19 01:30N 43°26' E 004°54'0 0.0
2018-Aug-19 00:52N 43°26' E 004°54'0 0.0
2018-Aug-19 00:25N 43°26' E 004°54'0 0.0
2018-Aug-18 23:57N 43°26' E 004°54'0 0.0
2018-Aug-18 23:29N 43°26' E 004°54'0 0.0
2018-Aug-18 23:00N 43°26' E 004°54'0 0.0
2018-Aug-18 22:30N 43°26' E 004°54'0 0.0
2018-Aug-18 21:59N 43°26' E 004°54'0 0.0
2018-Aug-18 21:23N 43°26' E 004°54'0 0.0
2018-Aug-18 21:00N 43°26' E 004°54'0 0.0
2018-Aug-18 20:30N 43°26' E 004°54'0 0.0
2018-Aug-18 20:00N 43°26' E 004°54'0 0.0
2018-Aug-18 19:29N 43°26' E 004°54'0 0.0
2018-Aug-18 19:00N 43°26' E 004°54'0 0.0
2018-Aug-18 18:30N 43°26' E 004°54'1 1.7
2018-Aug-18 18:00N 43°25' E 004°53'1 1.5
2018-Aug-18 17:27N 43°26' E 004°54'0 0.0
2018-Aug-18 16:56N 43°26' E 004°54'0 0.0
2018-Aug-18 16:30N 43°26' E 004°54'0 0.0
2018-Aug-18 16:00N 43°26' E 004°54'0 0.0
2018-Aug-18 15:30N 43°26' E 004°54'0 0.0
2018-Aug-18 15:00N 43°26' E 004°54'0 0.0
2018-Aug-18 14:23N 43°26' E 004°54'0 0.0
2018-Aug-18 13:59N 43°26' E 004°54'0 0.0
2018-Aug-18 12:24N 43°26' E 004°54'0 0.0
2018-Aug-18 12:00N 43°26' E 004°54'0 0.0
2018-Aug-18 11:30N 43°26' E 004°54'0 0.0
2018-Aug-18 11:00N 43°26' E 004°54'0 0.0
2018-Aug-18 10:25N 43°26' E 004°54'0 0.0
2018-Aug-18 09:59N 43°26' E 004°54'0 0.0
2018-Aug-18 09:27N 43°26' E 004°54'0 0.0
2018-Aug-18 09:00N 43°26' E 004°54'0 0.0
2018-Aug-18 08:29N 43°26' E 004°54'0 0.0
2018-Aug-18 07:46N 43°26' E 004°54'0 0.0
2018-Aug-18 07:26N 43°26' E 004°54'0 0.0
2018-Aug-18 07:00N 43°26' E 004°54'2 3.6
2018-Aug-18 06:27N 43°24' E 004°53'2 4.3
2018-Aug-18 06:00N 43°26' E 004°54'0 0.2
2018-Aug-18 05:30N 43°26' E 004°54'0 0.0
2018-Aug-18 05:00N 43°26' E 004°54'0 0.0
2018-Aug-18 04:29N 43°26' E 004°54'0 0.0
2018-Aug-18 04:00N 43°26' E 004°54'0 0.0
2018-Aug-18 03:30N 43°26' E 004°54'0 0.0
2018-Aug-18 02:59N 43°26' E 004°54'0 0.0
2018-Aug-18 02:30N 43°26' E 004°54'0 0.0
2018-Aug-18 01:58N 43°26' E 004°54'0 0.0
2018-Aug-18 01:30N 43°26' E 004°54'2 4.8
2018-Aug-18 00:59N 43°25' E 004°51'0 0.1
2018-Aug-18 00:30N 43°25' E 004°51'2 5.0
2018-Aug-18 00:00N 43°26' E 004°54'0 0.0
2018-Aug-17 23:30N 43°26' E 004°54'0 0.0
2018-Aug-17 23:00N 43°26' E 004°54'0 0.0
2018-Aug-17 22:30N 43°26' E 004°54'0 0.0
2018-Aug-17 22:00N 43°26' E 004°54'0 0.0
2018-Aug-17 21:29N 43°26' E 004°54'0 0.0
2018-Aug-17 21:00N 43°26' E 004°54'0 0.0
2018-Aug-17 20:30N 43°26' E 004°54'0 0.0
2018-Aug-17 20:00N 43°26' E 004°54'0 0.0
2018-Aug-17 19:30N 43°26' E 004°54'0 0.0
2018-Aug-17 19:00N 43°26' E 004°54'0 0.0
2018-Aug-17 18:30N 43°26' E 004°54'0 0.0
2018-Aug-17 18:00N 43°26' E 004°54'0 0.0
2018-Aug-17 17:30N 43°26' E 004°54'3 4.9
2018-Aug-17 16:53N 43°26' E 004°50'0 1.1
2018-Aug-17 16:27N 43°25' E 004°50'2 4.6
2018-Aug-17 15:58N 43°24' E 004°53'1 2.8
2018-Aug-17 15:29N 43°24' E 004°54'2 3.6
2018-Aug-17 15:00N 43°26' E 004°54'0 0.0
2018-Aug-17 11:30N 43°26' E 004°54'1 1.1
2018-Aug-17 10:47N 43°25' E 004°54'0 0.4
2018-Aug-17 10:29N 43°25' E 004°54'1 1.5
2018-Aug-17 09:53N 43°26' E 004°54'0 0.0
2018-Aug-17 09:30N 43°26' E 004°54'0 0.0
2018-Aug-17 09:00N 43°26' E 004°54'0 0.0
2018-Aug-17 08:30N 43°26' E 004°54'0 0.0
2018-Aug-17 08:00N 43°26' E 004°54'1 1.6
2018-Aug-17 07:30N 43°25' E 004°53'0 0.1
2018-Aug-17 07:00N 43°25' E 004°53'0 0.8
2018-Aug-17 06:29N 43°25' E 004°53'0 1.0
2018-Aug-17 06:00N 43°26' E 004°54'0 0.0
2018-Aug-17 05:30N 43°26' E 004°54'0 0.0
2018-Aug-17 05:00N 43°26' E 004°54'0 0.0
2018-Aug-17 04:30N 43°26' E 004°54'0 0.0
2018-Aug-17 04:00N 43°26' E 004°54'0 0.0
2018-Aug-17 03:30N 43°26' E 004°54'0 0.0
2018-Aug-17 03:00N 43°26' E 004°54'0 0.0
2018-Aug-17 02:30N 43°26' E 004°54'0 0.0
2018-Aug-17 02:00N 43°26' E 004°54'0 0.0
2018-Aug-17 01:30N 43°26' E 004°54'0 0.0
2018-Aug-17 01:00N 43°26' E 004°54'0 0.0
2018-Aug-17 00:30N 43°26' E 004°54'0 0.0
2018-Aug-17 00:00N 43°26' E 004°54'0 0.0
2018-Aug-16 23:30N 43°26' E 004°54'0 0.0
2018-Aug-16 23:00N 43°26' E 004°54'0 0.0
2018-Aug-16 22:30N 43°26' E 004°54'0 0.0
2018-Aug-16 22:00N 43°26' E 004°54'0 0.0
2018-Aug-16 21:30N 43°26' E 004°54'0 0.0
2018-Aug-16 21:00N 43°26' E 004°54'0 0.0
2018-Aug-16 20:30N 43°26' E 004°54'0 0.0
2018-Aug-16 20:00N 43°26' E 004°54'0 0.0
2018-Aug-16 19:30N 43°26' E 004°54'0 0.0
2018-Aug-16 19:00N 43°26' E 004°54'0 0.0
2018-Aug-16 18:30N 43°26' E 004°54'0 0.0
2018-Aug-16 18:00N 43°26' E 004°54'0 0.0
2018-Aug-16 17:30N 43°26' E 004°54'0 0.0
2018-Aug-16 17:00N 43°26' E 004°54'0 0.0
2018-Aug-16 16:30N 43°26' E 004°54'0 0.0
2018-Aug-16 16:00N 43°26' E 004°54'0 0.0
2018-Aug-16 15:30N 43°26' E 004°54'0 0.0
2018-Aug-16 15:00N 43°26' E 004°54'0 0.0
2018-Aug-16 14:30N 43°26' E 004°54'0 0.0
2018-Aug-16 14:00N 43°26' E 004°54'0 0.0
2018-Aug-16 13:30N 43°26' E 004°54'0 0.0
2018-Aug-16 13:00N 43°26' E 004°54'0 0.0
2018-Aug-16 12:30N 43°26' E 004°54'0 0.0
2018-Aug-16 12:00N 43°26' E 004°54'0 0.0
2018-Aug-16 11:30N 43°26' E 004°54'0 0.0
2018-Aug-16 11:00N 43°26' E 004°54'0 0.0
2018-Aug-16 10:30N 43°26' E 004°54'0 0.0
2018-Aug-16 10:00N 43°26' E 004°54'0 0.0
2018-Aug-16 09:30N 43°26' E 004°54'0 0.0
2018-Aug-16 09:00N 43°26' E 004°54'0 0.0
2018-Aug-16 08:30N 43°26' E 004°54'0 0.0
2018-Aug-16 08:00N 43°26' E 004°54'2 3.0
2018-Aug-16 07:30N 43°24' E 004°54'1 0.6
2018-Aug-16 06:38N 43°25' E 004°54'0 1.9
2018-Aug-16 06:30N 43°24' E 004°54'1 2.6
2018-Aug-16 06:00N 43°24' E 004°56'2 4.4
2018-Aug-16 05:30N 43°26' E 004°54'0 0.5
2018-Aug-16 05:00N 43°26' E 004°54'0 0.0
2018-Aug-16 04:30N 43°26' E 004°54'0 0.0
2018-Aug-16 04:00N 43°26' E 004°54'2 3.3
2018-Aug-16 03:27N 43°24' E 004°53'2 3.4
2018-Aug-16 02:58N 43°25' E 004°51'2 3.9
2018-Aug-16 02:30N 43°24' E 004°53'1 2.6
2018-Aug-16 02:00N 43°26' E 004°54'0 0.0
2018-Aug-16 01:30N 43°26' E 004°54'0 0.0
2018-Aug-16 01:00N 43°26' E 004°54'0 0.0
2018-Aug-16 00:30N 43°26' E 004°54'0 0.0
2018-Aug-16 00:00N 43°26' E 004°54'0 0.0
2018-Aug-15 23:30N 43°26' E 004°54'0 0.0
2018-Aug-15 23:00N 43°26' E 004°54'0 0.0
2018-Aug-15 22:30N 43°26' E 004°54'0 0.0
2018-Aug-15 22:00N 43°26' E 004°54'0 0.0
2018-Aug-15 21:30N 43°26' E 004°54'0 0.0
2018-Aug-15 21:00N 43°26' E 004°54'0 0.0
2018-Aug-15 20:30N 43°26' E 004°54'0 0.0
2018-Aug-15 20:00N 43°26' E 004°54'0 0.0
2018-Aug-15 19:30N 43°26' E 004°54'0 0.0
2018-Aug-15 19:00N 43°26' E 004°54'0 0.0
2018-Aug-15 18:30N 43°26' E 004°54'0 0.0
2018-Aug-15 18:00N 43°26' E 004°54'0 0.0
2018-Aug-15 17:30N 43°26' E 004°54'0 0.0
2018-Aug-15 17:00N 43°26' E 004°54'0 0.0
2018-Aug-15 16:30N 43°26' E 004°54'0 0.0
2018-Aug-15 16:00N 43°26' E 004°54'0 0.0
2018-Aug-15 15:30N 43°26' E 004°54'0 0.0
2018-Aug-15 15:00N 43°26' E 004°54'0 0.0
2018-Aug-15 14:30N 43°26' E 004°54'0 0.0
2018-Aug-15 14:00N 43°26' E 004°54'1 2.1
2018-Aug-15 13:28N 43°25' E 004°53'1 0.9
2018-Aug-15 12:46N 43°25' E 004°54'0 0.6
2018-Aug-15 12:30N 43°25' E 004°54'1 2.1
2018-Aug-15 12:00N 43°26' E 004°54'0 0.0
2018-Aug-15 11:30N 43°26' E 004°54'0 0.0
2018-Aug-15 11:00N 43°26' E 004°54'0 0.0
2018-Aug-15 10:30N 43°26' E 004°54'0 0.0
2018-Aug-15 10:00N 43°26' E 004°54'0 0.0
2018-Aug-15 09:30N 43°26' E 004°54'0 0.0
2018-Aug-15 09:00N 43°26' E 004°54'0 0.0
2018-Aug-15 08:30N 43°26' E 004°54'0 0.0
2018-Aug-15 08:00N 43°26' E 004°54'0 0.0
2018-Aug-15 07:30N 43°26' E 004°54'0 0.0
2018-Aug-15 07:00N 43°26' E 004°54'0 0.0
2018-Aug-15 06:30N 43°26' E 004°54'0 0.0
2018-Aug-15 06:00N 43°26' E 004°54'0 0.0
2018-Aug-15 05:30N 43°26' E 004°54'0 0.0
2018-Aug-15 05:00N 43°26' E 004°54'0 0.0
2018-Aug-15 04:30N 43°26' E 004°54'0 0.0
2018-Aug-15 04:00N 43°26' E 004°54'0 0.0
2018-Aug-15 03:30N 43°26' E 004°54'0 0.0
2018-Aug-15 03:00N 43°26' E 004°54'0 0.0
2018-Aug-15 02:30N 43°26' E 004°54'0 0.0
2018-Aug-15 02:00N 43°26' E 004°54'0 0.0
2018-Aug-15 01:30N 43°26' E 004°54'0 0.0
2018-Aug-15 01:00N 43°26' E 004°54'0 0.0
2018-Aug-15 00:30N 43°26' E 004°54'0 0.0
2018-Aug-15 00:00N 43°26' E 004°54'0 0.0
2018-Aug-14 23:30N 43°26' E 004°54'0 0.0
2018-Aug-14 23:00N 43°26' E 004°54'0 0.0
2018-Aug-14 22:30N 43°26' E 004°54'0 0.0
2018-Aug-14 22:00N 43°26' E 004°54'0 0.0
2018-Aug-14 21:30N 43°26' E 004°54'0 0.0
2018-Aug-14 21:00N 43°26' E 004°54'0 0.0
2018-Aug-14 20:30N 43°26' E 004°54'0 0.0
2018-Aug-14 20:00N 43°26' E 004°54'0 0.3
2018-Aug-14 19:29N 43°26' E 004°54'4 7.8
2018-Aug-14 18:59N 43°23' E 004°58'1 2.3
2018-Aug-14 18:30N 43°24' E 004°60'0 0.5
2018-Aug-14 17:59N 43°24' E 004°59'1 1.9
2018-Aug-14 17:30N 43°23' E 004°59'2 3.5
2018-Aug-14 17:00N 43°24' E 004°56'3 5.2
2018-Aug-14 16:30N 43°26' E 004°54'0 0.0
2018-Aug-14 16:00N 43°26' E 004°54'0 0.0
2018-Aug-14 15:30N 43°26' E 004°54'0 0.0
2018-Aug-14 15:00N 43°26' E 004°54'0 0.0
2018-Aug-14 14:30N 43°26' E 004°54'0 0.0
2018-Aug-14 14:00N 43°26' E 004°54'0 0.0
2018-Aug-14 13:30N 43°26' E 004°54'0 0.0
2018-Aug-14 13:00N 43°26' E 004°54'0 0.0
2018-Aug-14 12:30N 43°26' E 004°54'0 0.0
2018-Aug-14 12:00N 43°26' E 004°54'2 2.4
2018-Aug-14 10:59N 43°25' E 004°51'2 5.1
2018-Aug-14 10:30N 43°26' E 004°54'0 0.0
2018-Aug-14 10:00N 43°26' E 004°54'0 0.0
2018-Aug-14 09:30N 43°26' E 004°54'0 0.0
2018-Aug-14 09:00N 43°26' E 004°54'0 0.0
2018-Aug-14 08:30N 43°26' E 004°54'0 0.5
2018-Aug-14 08:00N 43°26' E 004°54'1 1.9
2018-Aug-14 07:20N 43°24' E 004°53'1 2.9
2018-Aug-14 07:00N 43°24' E 004°55'1 2.5
2018-Aug-14 06:30N 43°24' E 004°56'0 0.4
2018-Aug-14 06:00N 43°23' E 004°56'3 5.4
2018-Aug-14 05:30N 43°25' E 004°53'0 0.1
2018-Aug-14 05:00N 43°25' E 004°53'1 1.8
2018-Aug-14 04:30N 43°24' E 004°54'2 3.2
2018-Aug-14 04:00N 43°26' E 004°54'2 2.8
2018-Aug-14 03:18N 43°24' E 004°52'1 1.9
2018-Aug-14 02:37N 43°25' E 004°51'0 1.4
2018-Aug-14 02:29N 43°25' E 004°51'2 3.5
2018-Aug-14 02:00N 43°24' E 004°53'1 2.7
2018-Aug-14 01:30N 43°26' E 004°54'0 0.0
2018-Aug-14 01:00N 43°26' E 004°54'0 0.0
2018-Aug-14 00:30N 43°26' E 004°54'0 0.0
2018-Aug-14 00:00N 43°26' E 004°54'0 0.0
2018-Aug-13 23:30N 43°26' E 004°54'0 0.0
2018-Aug-13 23:00N 43°26' E 004°54'0 0.0
2018-Aug-13 22:30N 43°26' E 004°54'0 0.0
2018-Aug-13 22:00N 43°26' E 004°54'0 0.0
2018-Aug-13 21:30N 43°26' E 004°54'0 0.0
2018-Aug-13 20:59N 43°26' E 004°54'0 0.0
2018-Aug-13 20:30N 43°26' E 004°54'0 0.0
2018-Aug-13 20:00N 43°26' E 004°54'0 0.0
2018-Aug-13 19:30N 43°26' E 004°54'0 0.8
2018-Aug-13 18:59N 43°25' E 004°53'1 2.0
2018-Aug-13 18:29N 43°24' E 004°53'0 0.0
2018-Aug-13 18:00N 43°24' E 004°53'1 2.5
2018-Aug-13 17:30N 43°26' E 004°54'0 0.0
2018-Aug-13 17:00N 43°26' E 004°54'0 0.0
2018-Aug-13 16:30N 43°26' E 004°54'0 0.0
2018-Aug-13 16:00N 43°26' E 004°54'0 0.0
2018-Aug-13 15:30N 43°26' E 004°54'0 0.0
2018-Aug-13 15:00N 43°26' E 004°54'0 0.0
2018-Aug-13 14:30N 43°26' E 004°54'0 0.0
2018-Aug-13 14:00N 43°26' E 004°54'0 0.0
2018-Aug-13 13:30N 43°26' E 004°54'0 0.0
2018-Aug-13 13:00N 43°26' E 004°54'0 0.0
2018-Aug-13 12:30N 43°26' E 004°54'0 0.0
2018-Aug-13 12:00N 43°26' E 004°54'0 0.0
2018-Aug-13 11:30N 43°26' E 004°54'0 0.0
2018-Aug-13 11:00N 43°26' E 004°54'2 3.5
2018-Aug-13 10:26N 43°24' E 004°52'1 1.9
2018-Aug-13 09:59N 43°25' E 004°51'0 0.6
2018-Aug-13 09:29N 43°24' E 004°51'2 4.5
2018-Aug-13 09:00N 43°26' E 004°54'0 0.0
2018-Aug-13 08:30N 43°26' E 004°54'0 0.0
2018-Aug-13 08:00N 43°26' E 004°54'1 2.8
2018-Aug-13 07:29N 43°24' E 004°54'5 9.6
2018-Aug-13 07:00N 43°24' E 004°60'0 0.9
2018-Aug-13 06:30N 43°24' E 004°59'2 4.6
2018-Aug-13 06:00N 43°24' E 004°56'2 4.8
2018-Aug-13 05:30N 43°26' E 004°54'0 0.0
2018-Aug-13 05:00N 43°26' E 004°54'0 0.0
2018-Aug-13 04:30N 43°26' E 004°54'0 0.0
2018-Aug-13 04:00N 43°26' E 004°54'0 0.0
2018-Aug-13 03:30N 43°26' E 004°54'0 0.0
2018-Aug-13 02:59N 43°26' E 004°54'0 0.0
2018-Aug-13 02:30N 43°26' E 004°54'0 0.0
2018-Aug-13 02:00N 43°26' E 004°54'0 0.0
2018-Aug-13 01:30N 43°26' E 004°54'0 0.0
2018-Aug-13 01:00N 43°26' E 004°54'0 0.0
2018-Aug-13 00:30N 43°26' E 004°54'2 3.0
2018-Aug-12 23:44N 43°25' E 004°51'1 2.5
2018-Aug-12 23:28N 43°24' E 004°52'2 4.4
2018-Aug-12 23:00N 43°26' E 004°54'0 0.0
2018-Aug-12 22:30N 43°26' E 004°54'0 0.0
2018-Aug-12 22:00N 43°26' E 004°54'0 0.0
2018-Aug-12 21:30N 43°26' E 004°54'0 0.0
2018-Aug-12 21:00N 43°26' E 004°54'0 0.0
2018-Aug-12 20:30N 43°26' E 004°54'0 0.0
2018-Aug-12 20:00N 43°26' E 004°54'0 0.0
2018-Aug-12 19:30N 43°26' E 004°54'0 0.0
2018-Aug-12 19:00N 43°26' E 004°54'0 0.0
2018-Aug-12 18:30N 43°26' E 004°54'0 0.0
2018-Aug-12 18:00N 43°26' E 004°54'0 0.0
2018-Aug-12 17:30N 43°26' E 004°54'0 0.0
2018-Aug-12 17:00N 43°26' E 004°54'0 0.0
2018-Aug-12 16:30N 43°26' E 004°54'0 0.0
2018-Aug-12 16:00N 43°26' E 004°54'0 0.0
2018-Aug-12 15:30N 43°26' E 004°54'0 0.0
2018-Aug-12 15:00N 43°26' E 004°54'0 0.0
2018-Aug-12 14:30N 43°26' E 004°54'0 0.0
2018-Aug-12 14:00N 43°26' E 004°54'0 0.0
2018-Aug-12 13:30N 43°26' E 004°54'0 0.0
2018-Aug-12 13:00N 43°26' E 004°54'0 0.0
2018-Aug-12 12:30N 43°26' E 004°54'0 0.0
2018-Aug-12 12:00N 43°26' E 004°54'0 0.0
2018-Aug-12 11:30N 43°26' E 004°54'0 0.0
2018-Aug-12 11:00N 43°26' E 004°54'0 0.0
2018-Aug-12 10:30N 43°26' E 004°54'0 0.0
2018-Aug-12 10:00N 43°26' E 004°54'0 0.0
2018-Aug-12 09:30N 43°26' E 004°54'0 0.0
2018-Aug-12 09:00N 43°26' E 004°54'0 0.0
2018-Aug-12 08:30N 43°26' E 004°54'0 0.0
2018-Aug-12 08:00N 43°26' E 004°54'0 0.0
2018-Aug-12 07:30N 43°26' E 004°54'0 0.7
2018-Aug-12 06:59N 43°25' E 004°53'4 7.7
2018-Aug-12 06:30N 43°23' E 004°58'1 1.8
2018-Aug-12 05:57N 43°24' E 004°59'0 0.0
2018-Aug-12 05:29N 43°24' E 004°59'0 0.0
2018-Aug-12 04:58N 43°24' E 004°59'0 0.0
2018-Aug-12 04:30N 43°24' E 004°59'0 0.0
2018-Aug-12 04:00N 43°24' E 004°59'0 0.0
2018-Aug-12 03:30N 43°24' E 004°59'0 0.0
2018-Aug-12 03:00N 43°24' E 004°59'0 0.0
2018-Aug-12 02:30N 43°24' E 004°59'1 1.2
2018-Aug-12 02:00N 43°24' E 004°60'1 1.2
2018-Aug-12 01:30N 43°24' E 004°59'0 0.0
2018-Aug-12 00:59N 43°24' E 004°59'0 0.0
2018-Aug-12 00:30N 43°24' E 004°59'0 0.0
2018-Aug-12 00:00N 43°24' E 004°59'0 0.0
2018-Aug-11 23:30N 43°24' E 004°59'0 0.0
2018-Aug-11 23:00N 43°24' E 004°59'0 0.0
2018-Aug-11 22:30N 43°24' E 004°59'0 0.0
2018-Aug-11 22:00N 43°24' E 004°59'0 0.8
2018-Aug-11 21:30N 43°24' E 004°60'0 0.4
2018-Aug-11 21:00N 43°24' E 004°59'0 0.6
2018-Aug-11 20:30N 43°24' E 004°59'0 0.0
2018-Aug-11 20:00N 43°24' E 004°59'0 0.0
2018-Aug-11 19:30N 43°24' E 004°59'0 0.0
2018-Aug-11 19:00N 43°24' E 004°59'0 0.0
2018-Aug-11 18:30N 43°24' E 004°59'0 0.0
2018-Aug-11 18:00N 43°24' E 004°59'2 4.8
2018-Aug-11 17:30N 43°24' E 004°56'4 5.2
2018-Aug-11 16:49N 43°25' E 004°51'0 0.5
2018-Aug-11 16:24N 43°25' E 004°51'411.1
2018-Aug-11 16:00N 43°24' E 004°57'1 2.9
2018-Aug-11 15:30N 43°24' E 004°59'0 0.0
2018-Aug-11 15:00N 43°24' E 004°59'0 0.0
2018-Aug-11 14:30N 43°24' E 004°59'0 0.0
2018-Aug-11 13:59N 43°24' E 004°59'0 0.0
2018-Aug-11 13:30N 43°24' E 004°59'0 0.0
2018-Aug-11 13:00N 43°24' E 004°59'4 7.5
2018-Aug-11 12:30N 43°24' E 004°54'2 2.5
2018-Aug-11 11:48N 43°25' E 004°53'1 2.3
2018-Aug-11 11:30N 43°25' E 004°53'2 4.1
2018-Aug-11 10:58N 43°24' E 004°55'4 3.3
2018-Aug-11 09:49N 43°25' E 004°51'2 5.9
2018-Aug-11 09:30N 43°24' E 004°53'0 0.4
2018-Aug-11 08:59N 43°24' E 004°53'2 3.2
2018-Aug-11 08:29N 43°26' E 004°52'0 0.3
2018-Aug-11 07:56N 43°25' E 004°52'410.3
2018-Aug-11 07:30N 43°23' E 004°58'1 1.9
2018-Aug-11 07:00N 43°24' E 004°59'0 0.0
2018-Aug-11 06:30N 43°24' E 004°59'0 0.0
2018-Aug-11 05:54N 43°24' E 004°59'0 0.0
2018-Aug-11 05:30N 43°24' E 004°59'0 0.0
2018-Aug-11 05:00N 43°24' E 004°59'0 0.0
2018-Aug-11 04:29N 43°24' E 004°59'0 0.6
2018-Aug-11 04:00N 43°24' E 004°59'0 0.2
2018-Aug-11 03:30N 43°24' E 004°60'0 0.8
2018-Aug-11 03:00N 43°24' E 004°59'0 0.0
2018-Aug-11 02:30N 43°24' E 004°59'0 0.0
2018-Aug-11 02:00N 43°24' E 004°59'0 0.0
2018-Aug-11 01:30N 43°24' E 004°59'0 0.0
2018-Aug-11 01:00N 43°24' E 004°59'0 0.0
2018-Aug-11 00:30N 43°24' E 004°59'0 0.0
2018-Aug-11 00:00N 43°24' E 004°59'0 0.0
2018-Aug-10 23:30N 43°24' E 004°59'0 0.0
2018-Aug-10 23:00N 43°24' E 004°59'0 0.0
2018-Aug-10 22:30N 43°24' E 004°59'0 0.0
2018-Aug-10 22:00N 43°24' E 004°59'0 0.0
2018-Aug-10 21:30N 43°24' E 004°59'0 0.0
2018-Aug-10 21:00N 43°24' E 004°59'0 0.0
2018-Aug-10 20:30N 43°24' E 004°59'0 0.0
2018-Aug-10 19:59N 43°24' E 004°59'0 0.0
2018-Aug-10 19:30N 43°24' E 004°59'0 0.0
2018-Aug-10 19:00N 43°24' E 004°59'0 0.0
2018-Aug-10 18:29N 43°24' E 004°59'0 0.0
2018-Aug-10 17:59N 43°24' E 004°59'3 5.3
2018-Aug-10 17:30N 43°24' E 004°56'4 2.5
2018-Aug-10 16:06N 43°25' E 004°51'  

Dump ship's entire track history